< < Back
Terminal Aerodrome Forecast


Current Version              Previous Versions:   1  2  3  4  5  6  7  8  9  

Terminal Aerodrome Forecast

261
FTUS44 KBMX 242344 RRA
TAFANB
TAF
KANB 242344Z 2500/2524 10008KT P6SM VCTS SCT035 BKN060CB
     FM250200 10007KT P6SM BKN060
     FM250900 12009KT P6SM OVC015
      TEMPO 2511/2515 4SM BR OVC007
     FM251800 14006KT 5SM SHRA VCTS SCT020 BKN040CB=



Latest METAR

939
SAUS70 KWBC 251300 RRP
MTRANB
METAR KANB 251253Z AUTO 12006KT 10SM OVC017 22/18 A3023 RMK AO2 SLP228
T02220178


USA.gov is the U.S. government's official web portal to all federal, state and local government web resources and services.